地図

経路データ

SID SEASON NUMBER BASIN SUBBASIN NAME ISO_TIME NATURE LAT LON WMO_WIND WMO_PRES WMO_AGENCY TRACK_TYPE DIST2LAND LANDFALL IFLAG USA_AGENCY USA_ATCF_ID USA_LAT USA_LON USA_RECORD USA_STATUS USA_WIND USA_PRES USA_SSHS USA_R34_NE USA_R34_SE USA_R34_SW USA_R34_NW USA_R50_NE USA_R50_SE USA_R50_SW USA_R50_NW USA_R64_NE USA_R64_SE USA_R64_SW USA_R64_NW USA_POCI USA_ROCI USA_RMW USA_EYE TOKYO_LAT TOKYO_LON TOKYO_GRADE TOKYO_WIND TOKYO_PRES TOKYO_R50_DIR TOKYO_R50_LONG TOKYO_R50_SHORT TOKYO_R30_DIR TOKYO_R30_LONG TOKYO_R30_SHORT TOKYO_LAND CMA_LAT CMA_LON CMA_CAT CMA_WIND CMA_PRES HKO_LAT HKO_LON HKO_CAT HKO_WIND HKO_PRES NEWDELHI_LAT NEWDELHI_LON NEWDELHI_GRADE NEWDELHI_WIND NEWDELHI_PRES NEWDELHI_CI NEWDELHI_DP NEWDELHI_POCI REUNION_LAT REUNION_LON REUNION_TYPE REUNION_WIND REUNION_PRES REUNION_TNUM REUNION_CI REUNION_RMW REUNION_R34_NE REUNION_R34_SE REUNION_R34_SW REUNION_R34_NW REUNION_R50_NE REUNION_R50_SE REUNION_R50_SW REUNION_R50_NW REUNION_R64_NE REUNION_R64_SE REUNION_R64_SW REUNION_R64_NW BOM_LAT BOM_LON BOM_TYPE BOM_WIND BOM_PRES BOM_TNUM BOM_CI BOM_RMW BOM_R34_NE BOM_R34_SE BOM_R34_SW BOM_R34_NW BOM_R50_NE BOM_R50_SE BOM_R50_SW BOM_R50_NW BOM_R64_NE BOM_R64_SE BOM_R64_SW BOM_R64_NW BOM_ROCI BOM_POCI BOM_EYE BOM_POS_METHOD BOM_PRES_METHOD NADI_LAT NADI_LON NADI_CAT NADI_WIND NADI_PRES WELLINGTON_LAT WELLINGTON_LON WELLINGTON_WIND WELLINGTON_PRES DS824_LAT DS824_LON DS824_STAGE DS824_WIND DS824_PRES TD9636_LAT TD9636_LON TD9636_STAGE TD9636_WIND TD9636_PRES TD9635_LAT TD9635_LON TD9635_WIND TD9635_PRES TD9635_ROCI NEUMANN_LAT NEUMANN_LON NEUMANN_CLASS NEUMANN_WIND NEUMANN_PRES MLC_LAT MLC_LON MLC_CLASS MLC_WIND MLC_PRES USA_GUST BOM_GUST BOM_GUST_PER REUNION_GUST REUNION_GUST_PER USA_SEAHGT USA_SEARAD_NE USA_SEARAD_SE USA_SEARAD_SW USA_SEARAD_NW STORM_SPEED STORM_DIR
1976218N10253 1976 86 EP MM GWEN 1976-08-05 00:00:00 TS 9.80000 -107.000 30 hurdat_epa main 1023 1023 O________OO___ hurdat_epa EP071976 9.80000 -107.000 TD 30 -1 9.80000 -107.000 TC 30 9.80000 -107.000 1 30 7 234
1976218N10253 1976 86 EP MM GWEN 1976-08-05 03:00:00 TS 9.58069 -107.300 main 1056 1056 P________PP___ EP071976 9.56756 -107.295 TD 30 -1 9.56756 -107.295 TC 30 9.63321 -107.321 1 28 7 238
1976218N10253 1976 86 EP MM GWEN 1976-08-05 06:00:00 TS 9.41860 -107.609 30 hurdat_epa main 1090 1090 O________OP___ hurdat_epa EP071976 9.40000 -107.600 TD 30 -1 9.40000 -107.600 TC 30 9.49301 -107.643 1 27 7 251
1976218N10253 1976 86 EP MM GWEN 1976-08-05 09:00:00 TS 9.35921 -107.936 main 1103 1103 P________PP___ EP071976 9.34744 -107.928 TD 30 -1 9.34744 -107.928 TC 30 9.40631 -107.969 1 26 7 268
1976218N10253 1976 86 EP MM GWEN 1976-08-05 12:00:00 TS 9.40000 -108.300 30 hurdat_epa main 1122 1122 O________OO___ hurdat_epa EP071976 9.40000 -108.300 TD 30 -1 9.40000 -108.300 TC 30 9.40000 -108.300 1 25 8 282
1976218N10253 1976 86 EP MM GWEN 1976-08-05 15:00:00 TS 9.51997 -108.723 main 1133 1129 P________PP___ EP071976 9.52752 -108.742 TD 30 -1 9.52752 -108.742 TC 30 9.48977 -108.643 1 27 9 289
1976218N10253 1976 86 EP MM GWEN 1976-08-05 18:00:00 TS 9.68932 -109.164 30 hurdat_epa main 1142 1138 O________OP___ hurdat_epa EP071976 9.70000 -109.200 TD 30 -1 9.70000 -109.200 TC 30 9.64658 -109.022 1 30 9 292
1976218N10253 1976 86 EP MM GWEN 1976-08-05 21:00:00 TS 9.84577 -109.537 main 1150 1147 P________PP___ EP071976 9.84968 -109.555 TD 32 -1 9.84968 -109.555 TC 32 9.83014 -109.465 1 32 9 291
1976218N10253 1976 86 EP MM GWEN 1976-08-06 00:00:00 TS 10.0000 -110.000 35 hurdat_epa main 1163 1163 O________OO___ hurdat_epa EP071976 10.0000 -110.000 TS 35 0 10.0000 -110.000 TC 35 10.0000 -110.000 2 35 12 284
1976218N10253 1976 86 EP MM GWEN 1976-08-06 03:00:00 TS 10.1404 -110.697 main 1199 1196 P________PP___ EP071976 10.1501 -110.698 TS 40 0 10.1501 -110.698 TC 40 10.1016 -110.697 2 37 15 281
1976218N10253 1976 86 EP MM GWEN 1976-08-06 06:00:00 TS 10.2763 -111.496 45 hurdat_epa main 1229 1229 O________OP___ hurdat_epa EP071976 10.3000 -111.500 TS 45 0 10.3000 -111.500 TC 45 10.1814 -111.478 2 40 16 280
1976218N10253 1976 86 EP MM GWEN 1976-08-06 09:00:00 TS 10.4151 -112.278 main 1272 1272 P________PP___ EP071976 10.4575 -112.280 TS 45 0 10.4575 -112.280 TC 45 10.2453 -112.269 2 42 15 280
1976218N10253 1976 86 EP MM GWEN 1976-08-06 12:00:00 TS 10.5400 -113.000 45 hurdat_epa main 1313 1311 O________OO___ hurdat_epa EP071976 10.6000 -113.000 TS 45 0 10.6000 -113.000 TC 45 10.3000 -113.000 2 45 13 281
1976218N10253 1976 86 EP MM GWEN 1976-08-06 15:00:00 TS 10.6567 -113.592 main 1340 1340 P________PP___ EP071976 10.7298 -113.595 TS 45 0 10.7298 -113.595 TC 45 10.3645 -113.580 2 45 11 280
1976218N10253 1976 86 EP MM GWEN 1976-08-06 18:00:00 TS 10.7243 -114.098 45 hurdat_epa main 1378 1378 O________OP___ hurdat_epa EP071976 10.8000 -114.100 TS 45 0 10.8000 -114.100 TC 45 10.4215 -114.090 2 45 10 273
1976218N10253 1976 86 EP MM GWEN 1976-08-06 21:00:00 TS 10.7115 -114.563 main 1417 1417 P________PP___ EP071976 10.7724 -114.565 TS 45 0 10.7724 -114.565 TC 45 10.4678 -114.555 2 45 9 266
1976218N10253 1976 86 EP MM GWEN 1976-08-07 00:00:00 TS 10.6600 -115.000 45 hurdat_epa main 1447 1447 O________OO___ hurdat_epa EP071976 10.7000 -115.000 TS 45 0 10.7000 -115.000 TC 45 10.5000 -115.000 2 45 9 265
1976218N10253 1976 86 EP MM GWEN 1976-08-07 03:00:00 TS 10.6320 -115.460 main 1494 1494 P________PP___ EP071976 10.6575 -115.457 TS 45 0 10.6575 -115.457 TC 45 10.5304 -115.468 2 45 9 265
1976218N10253 1976 86 EP MM GWEN 1976-08-07 06:00:00 TS 10.5889 -115.904 45 hurdat_epa main 1512 1512 O________OP___ hurdat_epa EP071976 10.6000 -115.900 TS 45 0 10.6000 -115.900 TC 45 10.5447 -115.922 2 45 8 262
1976218N10253 1976 86 EP MM GWEN 1976-08-07 09:00:00 TS 10.5132 -116.313 main 1540 1540 P________PP___ EP071976 10.5074 -116.300 TS 45 0 10.5074 -116.300 TC 45 10.5366 -116.365 2 45 8 258
1976218N10253 1976 86 EP MM GWEN 1976-08-07 12:00:00 TS 10.4200 -116.720 45 hurdat_epa main 1569 1569 O________OO___ hurdat_epa EP071976 10.4000 -116.700 TS 45 0 10.4000 -116.700 TC 45 10.5000 -116.800 2 45 9 257
1976218N10253 1976 86 EP MM GWEN 1976-08-07 15:00:00 TS 10.3156 -117.161 main 1604 1604 P________PP___ EP071976 10.2925 -117.143 TS 45 0 10.2925 -117.143 TC 45 10.4082 -117.232 2 45 9 257
1976218N10253 1976 86 EP MM GWEN 1976-08-07 18:00:00 TS 10.2184 -117.612 45 hurdat_epa main 1634 1634 O________OP___ hurdat_epa EP071976 10.2000 -117.600 TS 45 0 10.2000 -117.600 TC 45 10.2922 -117.658 2 45 9 259
1976218N10253 1976 86 EP MM GWEN 1976-08-07 21:00:00 TS 10.1380 -118.062 main 1671 1671 P________PP___ EP071976 10.1275 -118.058 TS 50 0 10.1275 -118.058 TC 50 10.1801 -118.079 2 45 9 262
1976218N10253 1976 86 EP MM GWEN 1976-08-08 00:00:00 TS 10.1000 -118.500 55 hurdat_epa main 1693 1693 O________OO___ hurdat_epa EP071976 10.1000 -118.500 TS 55 0 10.1000 -118.500 TC 55 10.1000 -118.500 2 45 8 269
1976218N10253 1976 86 EP MM GWEN 1976-08-08 03:00:00 TS 10.1240 -118.896 main 1716 1716 P________PP___ EP071976 10.1349 -118.900 TS 55 0 10.1349 -118.900 TC 55 10.0803 -118.880 2 47 8 276
1976218N10253 1976 86 EP MM GWEN 1976-08-08 06:00:00 TS 10.1793 -119.294 55 hurdat_epa main 1731 1731 O________OP___ hurdat_epa EP071976 10.2000 -119.300 TS 55 0 10.2000 -119.300 TC 55 10.0965 -119.268 2 50 8 277
1976218N10253 1976 86 EP MM GWEN 1976-08-08 09:00:00 TS 10.2217 -119.703 main 1756 1756 P________PP___ EP071976 10.2423 -119.705 TS 55 0 10.2423 -119.705 TC 55 10.1395 -119.696 2 52 9 276
1976218N10253 1976 86 EP MM GWEN 1976-08-08 12:00:00 TS 10.2800 -120.200 55 hurdat_epa main 1778 1778 O________OO___ hurdat_epa EP071976 10.3000 -120.200 TS 55 0 10.3000 -120.200 TC 55 10.2000 -120.200 2 55 12 278
1976218N10253 1976 86 EP MM GWEN 1976-08-08 15:00:00 TS 10.3889 -120.864 main 1816 1816 P________PP___ EP071976 10.4076 -120.862 TS 55 0 10.4076 -120.862 TC 55 10.3144 -120.873 2 53 14 279
1976218N10253 1976 86 EP MM GWEN 1976-08-08 18:00:00 TS 10.4868 -121.603 55 hurdat_epa main 1855 1855 O________OP___ hurdat_epa EP071976 10.5000 -121.600 TS 55 0 10.5000 -121.600 TC 55 10.4339 -121.614 2 52 15 276
1976218N10253 1976 86 EP MM GWEN 1976-08-08 21:00:00 TS 10.5324 -122.352 main 1913 1913 P________PP___ EP071976 10.5376 -122.352 TS 52 0 10.5376 -122.352 TC 52 10.5113 -122.348 2 51 14 271
1976218N10253 1976 86 EP MM GWEN 1976-08-09 00:00:00 TS 10.5000 -123.000 50 hurdat_epa main 1957 1957 O________OO___ hurdat_epa EP071976 10.5000 -123.000 TS 50 0 10.5000 -123.000 TC 50 10.5000 -123.000 2 50 11 261
1976218N10253 1976 86 EP MM GWEN 1976-08-09 03:00:00 TS 10.3626 -123.432 main 1996 1996 P________PP___ EP071976 10.3798 -123.410 TS 50 0 10.3798 -123.410 TC 50 10.2941 -123.522 2 50 8 245
1976218N10253 1976 86 EP MM GWEN 1976-08-09 06:00:00 TS 10.1614 -123.749 50 hurdat_epa main 2033 2033 O________OP___ hurdat_epa EP071976 10.2000 -123.700 TS 50 0 10.2000 -123.700 TC 50 10.0069 -123.946 2 50 8 236
1976218N10253 1976 86 EP MM GWEN 1976-08-09 09:00:00 TS 9.93126 -124.084 main 2086 2086 P________PP___ EP071976 9.98501 -124.038 TS 50 0 9.98501 -124.038 TC 50 9.71624 -124.272 2 50 7 234
1976218N10253 1976 86 EP MM GWEN 1976-08-09 12:00:00 TS 9.74000 -124.340 50 hurdat_epa main 2117 2117 O________OO___ hurdat_epa EP071976 9.80000 -124.300 TS 50 0 9.80000 -124.300 TC 50 9.50000 -124.500 2 50 5 235
1976218N10253 1976 86 EP MM GWEN 1976-08-09 15:00:00 TS 9.66622 -124.472 main 2130 2130 P________PP___ EP071976 9.71995 -124.430 TS 47 0 9.71995 -124.430 TC 47 9.45131 -124.639 2 48 2 247
1976218N10253 1976 86 EP MM GWEN 1976-08-09 18:00:00 TS 9.65744 -124.538 45 hurdat_epa main 2130 2130 O________OP___ hurdat_epa EP071976 9.70000 -124.500 TS 45 0 9.70000 -124.500 TC 45 9.48722 -124.690 2 47 2 265
1976218N10253 1976 86 EP MM GWEN 1976-08-09 21:00:00 TS 9.65191 -124.625 main 2137 2137 P________PP___ EP071976 9.67000 -124.608 TS 45 0 9.67000 -124.608 TC 45 9.57953 -124.695 2 46 2 285
1976218N10253 1976 86 EP MM GWEN 1976-08-10 00:00:00 TS 9.70000 -124.700 45 hurdat_epa main 2143 2134 O________OO___ hurdat_epa EP071976 9.70000 -124.700 TS 45 0 9.70000 -124.700 TC 45 9.70000 -124.700 2 45 2 317
1976218N10253 1976 86 EP MM GWEN 1976-08-10 03:00:00 TS 9.81863 -124.778 main 2141 2123 P________PP___ EP071976 9.82750 -124.772 TS 45 0 9.82750 -124.772 TC 45 9.78314 -124.800 2 45 3 337
1976218N10253 1976 86 EP MM GWEN 1976-08-10 06:00:00 TS 9.97800 -124.820 45 hurdat_epa main 2123 2114 O________OP___ hurdat_epa EP071976 10.0000 -124.800 TS 45 0 10.0000 -124.800 TC 45 9.89001 -124.902 2 45 3 353
1976218N10253 1976 86 EP MM GWEN 1976-08-10 09:00:00 TS 10.1374 -124.808 main 2114 2096 P________PP___ EP071976 10.1650 -124.765 TS 42 0 10.1650 -124.765 TC 42 10.0269 -124.978 2 45 3 10
1976218N10253 1976 86 EP MM GWEN 1976-08-10 12:00:00 TS 10.2800 -124.760 40 hurdat_epa main 2096 2081 O________OO___ hurdat_epa EP071976 10.3000 -124.700 TS 40 0 10.3000 -124.700 TC 40 10.2000 -125.000 2 45 3 23
1976218N10253 1976 86 EP MM GWEN 1976-08-10 15:00:00 TS 10.3786 -124.702 main 2081 2065 P________PP___ EP071976 10.3575 -124.650 TS 40 0 10.3575 -124.650 TC 40 10.4629 -124.913 2 42 2 33
1976218N10253 1976 86 EP MM GWEN 1976-08-10 18:00:00 TS 10.4705 -124.635 40 hurdat_epa main 2065 2057 O________OP___ hurdat_epa EP071976 10.4000 -124.600 TS 40 0 10.4000 -124.600 TC 40 10.7526 -124.773 2 40 3 32
1976218N10253 1976 86 EP MM GWEN 1976-08-10 21:00:00 TS 10.5912 -124.570 main 2057 2041 P________PP___ EP071976 10.4850 -124.557 TS 37 0 10.4850 -124.557 TC 37 11.0160 -124.622 2 37 3 28
1976218N10253 1976 86 EP MM GWEN 1976-08-11 00:00:00 TS 10.7200 -124.500 35 hurdat_epa main 2041 2025 O________OO___ hurdat_epa EP071976 10.6000 -124.500 TS 35 0 10.6000 -124.500 TC 35 11.2000 -124.500 2 35 3 29
1976218N10253 1976 86 EP MM GWEN 1976-08-11 03:00:00 TS 10.8331 -124.429 main 2025 2017 P________PP___ EP071976 10.7425 -124.408 TS 35 0 10.7425 -124.408 TC 35 11.1955 -124.517 2 33 3 34
1976218N10253 1976 86 EP MM GWEN 1976-08-11 06:00:00 TS 10.9430 -124.352 35 hurdat_epa main 2017 2001 O________OP___ hurdat_epa EP071976 10.9000 -124.300 TS 35 0 10.9000 -124.300 TC 35 11.1147 -124.560 2 32 2 33
1976218N10253 1976 86 EP MM GWEN 1976-08-11 09:00:00 TS 11.0393 -124.293 main 2001 1977 P________PP___ EP071976 11.0425 -124.222 TS 32 -1 11.0425 -124.222 TC 32 11.0266 -124.573 2 31 3 38
1976218N10253 1976 86 EP MM GWEN 1976-08-11 12:00:00 TS 11.1600 -124.180 30 hurdat_epa main 1977 1948 O________OO___ hurdat_epa EP071976 11.2000 -124.100 TD 30 -1 11.2000 -124.100 TC 30 11.0000 -124.500 1 30 5 52
1976218N10253 1976 86 EP MM GWEN 1976-08-11 15:00:00 TS 11.3365 -123.909 main 1948 1917 P________PP___ EP071976 11.3926 -123.835 TD 30 -1 11.3926 -123.835 TC 30 11.1124 -124.204 1 30 6 54
1976218N10253 1976 86 EP MM GWEN 1976-08-11 18:00:00 TS 11.5392 -123.646 30 hurdat_epa main 1910 1892 O________OP___ hurdat_epa EP071976 11.6000 -123.600 TD 30 -1 11.6000 -123.600 TC 30 11.2958 -123.828 1 30 5 40
1976218N10253 1976 86 EP MM GWEN 1976-08-11 21:00:00 TS 11.7522 -123.549 main 1877 1859 P________PP___ EP071976 11.8075 -123.570 TD 30 -1 11.8075 -123.570 TC 30 11.5311 -123.463 1 30 4 16
1976218N10253 1976 86 EP MM GWEN 1976-08-12 00:00:00 TS 11.9600 -123.520 30 hurdat_epa main 1859 1850 O________OO___ hurdat_epa EP071976 12.0000 -123.600 TD 30 -1 12.0000 -123.600 TC 30 11.8000 -123.200 1 30 4 13
1976218N10253 1976 86 EP MM GWEN 1976-08-12 03:00:00 TS 12.0910 -123.463 main 1850 1826 P________PP___ EP071976 12.1275 -123.550 TD 30 -1 12.1275 -123.550 TC 30 11.9452 -123.116 1 30 3 15
1976218N10253 1976 86 EP MM GWEN 1976-08-12 06:00:00 TS 12.2675 -123.430 30 hurdat_epa main 1826 1809 O________OP___ hurdat_epa EP071976 12.3000 -123.500 TD 30 -1 12.3000 -123.500 TC 30 12.1374 -123.150 1 30 4 4
1976218N10253 1976 86 EP MM GWEN 1976-08-12 09:00:00 TS 12.5162 -123.421 main 1809 1773 P________PP___ EP071976 12.5300 -123.455 TD 30 -1 12.5300 -123.455 TC 30 12.4609 -123.283 1 30 7 354
1976218N10253 1976 86 EP MM GWEN 1976-08-12 12:00:00 TS 13.0000 -123.500 30 hurdat_epa main 1773 1721 O________OO___ hurdat_epa EP071976 13.0000 -123.500 TD 30 -1 13.0000 -123.500 TC 30 13.0000 -123.500 1 30 13 349
1976218N10253 1976 86 EP MM GWEN 1976-08-12 15:00:00 TS 13.8251 -123.683 main 1721 1663 P________PP___ EP071976 13.8226 -123.683 TD 37 0 13.8226 -123.683 TC 37 13.8355 -123.685 1 33 20 346
1976218N10253 1976 86 EP MM GWEN 1976-08-12 18:00:00 TS 14.8973 -123.992 45 hurdat_epa main 1656 1597 O________OP___ hurdat_epa EP071976 14.9000 -124.000 TS 45 0 14.9000 -124.000 TC 45 14.8866 -123.959 1 37 24 344
1976218N10253 1976 86 EP MM GWEN 1976-08-12 21:00:00 TS 16.0755 -124.353 main 1598 1544 P________PP___ EP071976 16.0770 -124.354 TS 45 0 16.0770 -124.354 TC 45 16.0693 -124.353 1 41 26 340
1976218N10253 1976 86 EP MM GWEN 1976-08-13 00:00:00 TS 17.3000 -124.900 45 hurdat_epa main 1542 1500 O________OO___ hurdat_epa EP071976 17.3000 -124.900 TS 45 0 17.3000 -124.900 TC 45 17.3000 -124.900 2 45 27 331
1976218N10253 1976 86 EP MM GWEN 1976-08-13 03:00:00 TS 18.4265 -125.696 main 1507 1491 P________PP___ EP071976 18.3929 -125.733 TS 42 0 18.3929 -125.733 TC 42 18.5612 -125.545 2 43 28 324
1976218N10253 1976 86 EP MM GWEN 1976-08-13 06:00:00 TS 19.5665 -126.632 40 hurdat_epa main 1486 1470 O________OP___ hurdat_epa EP071976 19.5000 -126.700 TS 40 0 19.5000 -126.700 TC 40 19.8326 -126.358 2 42 30 326
1976218N10253 1976 86 EP MM GWEN 1976-08-13 09:00:00 TS 20.8727 -127.477 main 1475 1471 P________PP___ EP071976 20.8377 -127.510 TS 40 0 20.8377 -127.510 TC 40 21.0128 -127.342 2 41 30 324
1976218N10253 1976 86 EP MM GWEN 1976-08-13 12:00:00 TS 22.0000 -128.500 40 hurdat_epa main 1501 1501 O________OO___ hurdat_epa EP071976 22.0000 -128.500 TS 40 0 22.0000 -128.500 TC 40 22.0000 -128.500 2 40 29 308
1976218N10253 1976 86 EP MM GWEN 1976-08-13 15:00:00 TS 22.6523 -129.908 main 1594 1594 P________PP___ EP071976 22.6283 -129.920 TS 40 0 22.6283 -129.920 TC 40 22.7484 -129.862 2 38 29 291
1976218N10253 1976 86 EP MM GWEN 1976-08-13 18:00:00 TS 23.0564 -131.475 40 hurdat_epa main 1652 1652 O________OP___ hurdat_epa EP071976 23.0000 -131.500 TS 40 0 23.0000 -131.500 TC 40 23.2819 -131.373 2 37 30 286
1976218N10253 1976 86 EP MM GWEN 1976-08-13 21:00:00 TS 23.4895 -132.997 main 1716 1716 P________PP___ EP071976 23.4607 -133.054 TS 37 0 23.4438 -132.973 TC 37 23.6234 -132.924 2 36 28 285
1976218N10253 1976 86 EP MM GWEN 1976-08-14 00:00:00 TS 23.8000 -134.400 35 hurdat_epa main 1790 1790 O________OO___ hurdat_epa EP071976 23.8000 -134.400 TS 35 0 23.8000 -134.400 TC 35 23.8000 -134.400 2 35 24 282
1976218N10253 1976 86 EP MM GWEN 1976-08-14 03:00:00 TS 23.9876 -135.539 main 1856 1856 P________PP___ EP071976 23.9930 -135.193 TS 32 -1 24.1123 -135.824 TC 32 23.8428 -135.716 2 33 20 276
1976218N10253 1976 86 EP MM GWEN 1976-08-14 06:00:00 TS 24.0083 -136.583 30 hurdat_epa main 1940 1822 O________OP___ hurdat_epa EP071976 24.0000 -136.000 TD 30 -1 24.2000 -137.100 TC 30 23.7857 -136.891 2 32 21 266
1976218N10253 1976 86 EP MM GWEN 1976-08-14 09:00:00 TS 23.8467 -137.821 main 1819 1703 P________PP___ EP071976 23.8437 -137.501 TD 30 -1 23.9535 -138.134 TC 30 23.6611 -137.970 2 31 23 257
1976218N10253 1976 86 EP MM GWEN 1976-08-14 12:00:00 TS 23.5000 -139.000 30 hurdat_epa main 1693 1604 O________OO___ hurdat_epa EP071976 23.5000 -139.000 TD 30 -1 23.5000 -139.000 TC 30 23.5000 -139.000 1 30 20 246
1976218N10253 1976 86 EP MM GWEN 1976-08-14 15:00:00 TS 23.0392 -139.842 main 1601 1520 P________P____ EP071976 23.0422 -139.881 TD 30 -1 23.0289 -139.799 TC 30 1 18 235
1976218N10253 1976 86 EP CP GWEN 1976-08-14 18:00:00 TS 22.4882 -140.594 30 hurdat_epa main 1510 1408 O________O____ hurdat_epa EP071976 22.5000 -140.600 TD 30 -1 22.5000 -140.600 TC 30 1 20 233
1976218N10253 1976 86 EP CP GWEN 1976-08-14 21:00:00 TS 21.8585 -141.561 main 1398 1298 P________P____ EP071976 21.8753 -141.559 TD 27 -1 21.8753 -141.559 TC 27 1 21 239
1976218N10253 1976 86 EP CP GWEN 1976-08-15 00:00:00 TS 21.4000 -142.516 25 hurdat_epa main 1298 1214 O________O____ hurdat_epa EP071976 21.4000 -142.500 TD 25 -1 21.4000 -142.500 TC 25 17 253
1976218N10253 1976 86 EP CP GWEN 1976-08-15 03:00:00 TS 21.3438 -143.336 main 1214 1144 P________P____ EP071976 21.3093 -143.286 TD 25 -1 21.3093 -143.286 TC 25 15 272
1976218N10253 1976 86 EP CP GWEN 1976-08-15 06:00:00 TS 21.4600 -144.080 25 hurdat_epa main 1136 1064 O________O____ hurdat_epa EP071976 21.4000 -144.000 TD 25 -1 21.4000 -144.000 TC 25 14 276
1976218N10253 1976 86 EP CP GWEN 1976-08-15 09:00:00 TS 21.4981 -144.814 main 1064 993 P________P____ EP071976 21.4421 -144.707 TD 25 -1 21.4421 -144.707 TC 25 13 273
1976218N10253 1976 86 EP CP GWEN 1976-08-15 12:00:00 TS 21.5400 -145.520 25 hurdat_epa main 993 925 O________O____ hurdat_epa EP071976 21.5000 -145.400 TD 25 -1 21.5000 -145.400 TC 25 13 273
1976218N10253 1976 86 EP CP GWEN 1976-08-15 15:00:00 TS 21.5721 -146.213 main 925 855 P________P____ EP071976 21.5421 -146.093 TD 25 -1 21.5421 -146.093 TC 25 13 274
1976218N10253 1976 86 EP CP GWEN 1976-08-15 18:00:00 TS 21.6200 -146.900 25 hurdat_epa main 855 788 O________O____ hurdat_epa EP071976 21.6000 -146.800 TD 25 -1 21.6000 -146.800 TC 25 13 276
1976218N10253 1976 86 EP CP GWEN 1976-08-15 21:00:00 TS 21.7086 -147.627 main 788 723 P________P____ EP071976 21.7002 -147.580 TD 25 -1 21.7002 -147.580 TC 25 13 278
1976218N10253 1976 86 EP CP GWEN 1976-08-16 00:00:00 TS 21.8000 -148.300 25 hurdat_epa main 723 679 O________O____ hurdat_epa EP071976 21.8000 -148.300 TD 25 -1 21.8000 -148.300 TC 25 11 278
1976218N10253 1976 86 EP CP GWEN 1976-08-16 03:00:00 TS 21.8616 -148.843 main 679 631 P________P____ EP071976 21.8645 -148.845 TD 25 -1 21.8645 -148.845 TC 25 10 276
1976218N10253 1976 86 EP CP GWEN 1976-08-16 06:00:00 TS 21.9000 -149.320 25 hurdat_epa main 631 585 O________O____ hurdat_epa EP071976 21.9000 -149.300 TD 25 -1 21.9000 -149.300 TC 25 9 273
1976218N10253 1976 86 EP CP GWEN 1976-08-16 09:00:00 TS 21.9113 -149.799 main 585 539 P________P____ EP071976 21.8998 -149.750 TD 25 -1 21.8998 -149.750 TC 25 9 271
1976218N10253 1976 86 EP CP GWEN 1976-08-16 12:00:00 TS 21.9200 -150.280 25 hurdat_epa main 539 501 O________O____ hurdat_epa EP071976 21.9000 -150.200 TD 25 -1 21.9000 -150.200 TC 25 9 273
1976218N10253 1976 86 EP CP GWEN 1976-08-16 15:00:00 TS 21.9615 -150.806 main 501 458 P________P____ EP071976 21.9500 -150.707 TD 25 -1 21.9500 -150.707 TC 25 10 275
1976218N10253 1976 86 EP CP GWEN 1976-08-16 18:00:00 TS 22.0000 -151.320 25 hurdat_epa main 458 423 O________O____ hurdat_epa EP071976 22.0000 -151.200 TD 25 -1 22.0000 -151.200 TC 25 8 272
1976218N10253 1976 86 EP CP GWEN 1976-08-16 21:00:00 TS 21.9872 -151.717 main 423 381 P________P____ EP071976 21.9916 -151.548 TD 25 -1 21.9916 -151.548 TC 25 8 270
1976218N10253 1976 86 EP CP GWEN 1976-08-17 00:00:00 TS 22.0000 -152.200 25 hurdat_epa main 381 334 O________O____ hurdat_epa EP071976 22.0000 -152.000 TD 25 -1 22.0000 -152.000 TC 25 11 275
1976218N10253 1976 86 EP CP GWEN 1976-08-17 03:00:00 TS 22.0931 -152.940 main 334 276 P________P____ EP071976 22.0702 -152.768 TD 25 -1 22.0702 -152.768 TC 25 15 279
1976218N10253 1976 86 EP CP GWEN 1976-08-17 06:00:00 TS 22.2400 -153.820 25 hurdat_epa main 276 223 O________O____ hurdat_epa EP071976 22.2000 -153.700 TD 25 -1 22.2000 -153.700 TC 25 17 281
1976218N10253 1976 86 EP CP GWEN 1976-08-17 09:00:00 TS 22.4082 -154.745 main 223 199 P________P____ EP071976 22.3853 -154.672 TD 25 -1 22.3853 -154.672 TC 25 17 282
1976218N10253 1976 86 EP CP GWEN 1976-08-17 12:00:00 TS 22.6000 -155.632 25 hurdat_epa main 205 202 O________O____ hurdat_epa EP071976 22.6000 -155.600 TD 25 -1 22.6000 -155.600 TC 25 15 285
1976218N10253 1976 86 EP CP GWEN 1976-08-17 15:00:00 TS 22.8031 -156.355 main 204 181 P________P____ EP071976 22.8065 -156.330 TD 25 -1 22.8065 -156.330 TC 25 13 287
1976218N10253 1976 86 EP CP GWEN 1976-08-17 18:00:00 TS 23.0000 -157.018 25 hurdat_epa main 181 168 O________O____ hurdat_epa EP071976 23.0000 -157.000 TD 25 -1 23.0000 -157.000 TC 25 13 286
1976218N10253 1976 86 EP CP GWEN 1976-08-17 21:00:00 TS 23.1649 -157.750 main 179 157 P________P____ EP071976 23.1649 -157.750 TD 25 -1 23.1649 -157.750 TC 25 14 282
1976218N10253 1976 86 EP CP GWEN 1976-08-18 00:00:00 TS 23.3000 -158.500 25 hurdat_epa main 157 143 O________O____ hurdat_epa EP071976 23.3000 -158.500 TD 25 -1 23.3000 -158.500 TC 25 14 280
1976218N10253 1976 86 EP CP GWEN 1976-08-18 03:00:00 TS 23.4080 -159.212 main 145 145 P________P____ EP071976 23.4080 -159.212 TD 25 -1 23.4080 -159.212 TC 25 13 279
1976218N10253 1976 86 EP CP GWEN 1976-08-18 06:00:00 TS 23.5000 -159.900 25 hurdat_epa main 157 O________O____ hurdat_epa EP071976 23.5000 -159.900 TD 25 -1 23.5000 -159.900 TC 25 13 278

IBTrACS Databaseについて

本データベースは、米国NOAAが公開する1842年以降の世界の熱帯低気圧のベストトラックデータアーカイブInternational Best Track Archive for Climate Stewardship (IBTrACS)を、ウェブで閲覧しやすい形式に変換したものです。

最終更新日:2021-12-08